createdAt,value
2018-11-13T05:05:16.675Z,98.40
2018-11-13T05:07:46.875Z,98.50
2018-11-13T05:10:15.056Z,98.60
2018-11-13T05:12:43.914Z,98.90
2018-11-13T05:15:12.015Z,98.60
2018-11-13T05:17:41.023Z,98.50
2018-11-13T05:20:09.923Z,98.40
2018-11-13T05:22:38.030Z,98.30
2018-11-13T05:25:07.623Z,98.30
2018-11-13T05:27:35.758Z,98.50
2018-11-13T05:30:04.308Z,98.40
2018-11-13T05:32:32.419Z,98.50
2018-11-13T05:35:01.586Z,98.40
2018-11-13T05:37:29.771Z,98.40
2018-11-13T05:39:57.910Z,98.60
2018-11-13T05:42:26.084Z,98.60
2018-11-13T05:44:54.171Z,98.80
2018-11-13T05:47:22.319Z,98.80
2018-11-13T05:49:50.361Z,98.80
2018-11-13T05:52:18.430Z,98.80
2018-11-13T05:54:46.509Z,99.00
2018-11-13T05:57:14.585Z,99.10
2018-11-13T05:59:42.684Z,99.10
2018-11-13T06:02:10.767Z,99.10
2018-11-13T06:04:38.854Z,99.00
2018-11-13T06:07:06.939Z,99.00
2018-11-13T06:09:35.028Z,98.70
2018-11-13T06:12:03.132Z,98.60
2018-11-13T06:14:31.217Z,98.50
2018-11-13T06:16:59.305Z,98.50
2018-11-13T06:19:27.507Z,98.50
2018-11-13T06:21:55.570Z,98.40
2018-11-13T06:24:23.667Z,98.40
2018-11-13T06:26:51.747Z,98.20
2018-11-13T06:29:19.863Z,98.10
2018-11-13T06:31:47.903Z,98.00
2018-11-13T06:34:16.001Z,98.00
2018-11-13T06:36:44.058Z,97.90
2018-11-13T06:39:13.726Z,98.00
2018-11-13T06:41:42.622Z,97.90
2018-11-13T06:44:10.694Z,98.00
2018-11-13T06:46:39.698Z,98.00
2018-11-13T06:49:07.841Z,98.00
2018-11-13T06:51:36.011Z,98.00
2018-11-13T06:54:15.613Z,98.00
2018-11-13T06:56:47.850Z,98.00
2018-11-13T06:59:15.950Z,98.00
2018-11-13T07:01:43.998Z,98.10
2018-11-13T07:04:12.077Z,97.90
2018-11-13T07:06:40.175Z,97.90
2018-11-13T07:09:08.938Z,97.90
2018-11-13T07:11:37.062Z,98.00
2018-11-13T07:14:05.170Z,97.70
2018-11-13T07:16:33.318Z,97.60
2018-11-13T07:19:01.407Z,97.60
2018-11-13T07:21:29.515Z,97.70
2018-11-13T07:23:57.648Z,98.00
2018-11-13T07:26:25.846Z,98.20
2018-11-13T07:28:53.919Z,98.20
2018-11-13T07:31:22.088Z,97.90
2018-11-13T07:33:50.151Z,98.00
2018-11-13T07:36:18.189Z,98.00
2018-11-13T07:38:46.244Z,97.70
2018-11-13T07:41:14.396Z,98.00
2018-11-13T07:43:42.402Z,97.80
2018-11-13T07:46:10.470Z,98.40
2018-11-13T07:48:38.547Z,98.40
2018-11-13T07:51:06.655Z,98.10
2018-11-13T07:53:34.646Z,97.30
2018-11-13T07:56:02.703Z,97.50
2018-11-13T07:58:30.868Z,97.30
2018-11-13T08:00:58.915Z,97.20
2018-11-13T08:03:30.216Z,97.10
2018-11-13T08:05:58.322Z,97.10
2018-11-13T08:08:26.408Z,97.10
2018-11-13T08:10:54.452Z,97.20
2018-11-13T08:13:22.563Z,96.80
2018-11-13T08:15:50.589Z,96.90
2018-11-13T08:18:18.766Z,96.90
2018-11-13T08:20:46.774Z,96.60
2018-11-13T08:23:14.842Z,96.70
2018-11-13T08:25:42.912Z,96.60
2018-11-13T08:28:10.986Z,96.70
2018-11-13T08:30:39.050Z,96.50
2018-11-13T08:33:07.137Z,96.60
2018-11-13T08:35:35.172Z,96.40
2018-11-13T08:38:03.227Z,96.60
2018-11-13T08:40:31.301Z,96.50
2018-11-13T08:42:59.381Z,96.30
2018-11-13T08:45:27.453Z,95.80
2018-11-13T08:47:55.536Z,95.30
2018-11-13T08:50:23.643Z,95.00
2018-11-13T08:52:51.670Z,95.10
2018-11-13T08:55:19.786Z,94.70
2018-11-13T08:57:47.871Z,95.00
2018-11-13T09:00:17.758Z,94.80
2018-11-13T09:02:46.489Z,94.80
2018-11-13T09:05:14.851Z,94.80
2018-11-13T09:07:42.917Z,95.10
2018-11-13T09:10:12.131Z,94.80
2018-11-13T09:12:40.518Z,93.90
2018-11-13T09:15:10.302Z,93.90
2018-11-13T09:17:38.383Z,93.80
2018-11-13T09:20:08.934Z,94.40
2018-11-13T09:22:37.037Z,94.60
2018-11-13T09:25:06.470Z,94.20
2018-11-13T09:27:34.554Z,93.10
2018-11-13T09:30:02.697Z,92.70
2018-11-13T09:32:31.550Z,93.10
2018-11-13T09:34:59.721Z,93.10
2018-11-13T09:37:27.830Z,92.60
2018-11-13T09:39:55.928Z,92.30
2018-11-13T09:42:23.998Z,92.40
2018-11-13T09:44:52.151Z,92.50
2018-11-13T09:47:20.188Z,92.90
2018-11-13T09:49:48.271Z,91.80
2018-11-13T09:52:16.389Z,92.20
2018-11-13T09:54:44.442Z,92.50
2018-11-13T09:57:13.390Z,92.30
2018-11-13T09:59:41.459Z,92.70
2018-11-13T10:02:10.147Z,91.40
2018-11-13T10:04:38.423Z,92.10
2018-11-13T10:07:05.879Z,91.20
2018-11-13T10:09:33.953Z,91.00
2018-11-13T10:12:02.721Z,90.90
2018-11-13T10:14:30.830Z,91.70
2018-11-13T10:16:58.921Z,91.20
2018-11-13T10:19:26.962Z,90.80
2018-11-13T10:21:55.021Z,91.10
2018-11-13T10:24:23.121Z,91.20
2018-11-13T10:26:51.212Z,91.00
2018-11-13T10:29:19.279Z,91.20
2018-11-13T10:31:47.362Z,90.40
2018-11-13T10:34:15.446Z,90.50
2018-11-13T10:36:43.727Z,90.80
2018-11-13T10:39:12.018Z,90.50
2018-11-13T10:41:40.192Z,90.70
2018-11-13T10:44:08.289Z,91.00
2018-11-13T10:46:36.490Z,90.50
2018-11-13T10:49:04.734Z,90.60
2018-11-13T10:51:32.762Z,89.60
2018-11-13T10:54:00.865Z,90.00
2018-11-13T10:56:28.955Z,90.30
2018-11-13T10:58:56.987Z,90.30
2018-11-13T11:01:30.550Z,90.20
2018-11-13T11:04:03.946Z,90.00
2018-11-13T11:06:33.241Z,89.00
2018-11-13T11:09:01.523Z,89.70
2018-11-13T11:11:29.842Z,89.10
2018-11-13T11:13:58.124Z,90.00
2018-11-13T11:16:25.940Z,88.50
2018-11-13T11:18:54.094Z,89.10
2018-11-13T11:21:22.081Z,88.80
2018-11-13T11:23:50.195Z,88.90
2018-11-13T11:26:18.254Z,88.50
2018-11-13T11:28:46.314Z,89.60
2018-11-13T11:31:14.393Z,90.10
2018-11-13T11:33:42.479Z,90.20
2018-11-13T11:36:10.534Z,90.10
2018-11-13T11:38:38.675Z,90.00
2018-11-13T11:41:06.691Z,90.10
2018-11-13T11:43:34.750Z,90.20
2018-11-13T11:46:02.845Z,90.40
2018-11-13T11:48:30.917Z,89.40
2018-11-13T11:50:59.003Z,89.00
2018-11-13T11:53:27.074Z,88.10
2018-11-13T11:55:55.119Z,86.90
2018-11-13T11:58:23.194Z,87.70
2018-11-13T12:00:51.336Z,87.10
2018-11-13T12:03:19.326Z,84.20
2018-11-13T12:05:47.419Z,82.50
2018-11-13T12:08:15.485Z,82.90
2018-11-13T12:10:43.555Z,82.20
2018-11-13T12:13:11.697Z,82.80
2018-11-13T12:15:39.762Z,82.70
2018-11-13T12:18:07.818Z,83.80
2018-11-13T12:20:35.907Z,84.50
2018-11-13T12:23:03.966Z,85.90
2018-11-13T12:25:32.036Z,85.00
2018-11-13T12:28:00.115Z,85.00
2018-11-13T12:30:28.174Z,85.50
2018-11-13T12:32:56.261Z,85.70
2018-11-13T12:35:24.340Z,85.00
2018-11-13T12:37:52.392Z,84.40
2018-11-13T12:40:22.504Z,86.20
2018-11-13T12:42:50.940Z,86.60
2018-11-13T12:45:19.441Z,85.60
2018-11-13T12:47:47.523Z,86.00
2018-11-13T12:50:16.778Z,86.30
2018-11-13T12:52:44.814Z,86.10
2018-11-13T12:55:23.511Z,85.90
2018-11-13T12:57:51.590Z,86.20
2018-11-13T13:00:23.491Z,86.00
2018-11-13T13:02:51.645Z,84.50
2018-11-13T13:05:19.732Z,84.80
2018-11-13T13:07:47.791Z,84.50
2018-11-13T13:10:16.860Z,83.30
2018-11-13T13:12:44.940Z,83.40
2018-11-13T13:15:14.486Z,83.70
2018-11-13T13:17:42.778Z,83.10
2018-11-13T13:20:13.698Z,80.30
2018-11-13T13:22:42.012Z,79.60
2018-11-13T13:25:12.434Z,81.00
2018-11-13T13:27:40.572Z,79.90
2018-11-13T13:30:12.078Z,83.20
2018-11-13T13:32:40.118Z,83.80
2018-11-13T13:35:45.057Z,85.70
2018-11-13T13:38:13.118Z,86.80
2018-11-13T13:40:42.138Z,87.50
2018-11-13T13:43:11.112Z,88.10
2018-11-13T13:45:39.927Z,88.60
2018-11-13T13:48:08.004Z,89.00
2018-11-13T13:50:36.329Z,89.70
2018-11-13T13:53:04.882Z,90.30
2018-11-13T13:55:32.944Z,90.10
2018-11-13T13:58:01.015Z,90.40
2018-11-13T14:00:29.227Z,90.60
2018-11-13T14:02:57.266Z,90.90
2018-11-13T14:05:25.352Z,91.10
2018-11-13T14:07:53.402Z,90.90
2018-11-13T14:10:21.450Z,91.10
2018-11-13T14:12:49.535Z,91.30
2018-11-13T14:15:17.622Z,91.10
2018-11-13T14:17:45.666Z,91.20
2018-11-13T14:20:16.397Z,91.40
2018-11-13T14:22:44.461Z,91.30
2018-11-13T14:25:12.981Z,91.40
2018-11-13T14:27:41.069Z,91.30
2018-11-13T14:30:22.571Z,90.60
2018-11-13T14:32:51.046Z,90.70
2018-11-13T14:35:19.191Z,90.10
2018-11-13T14:37:47.536Z,90.10
2018-11-13T14:40:23.084Z,90.00
2018-11-13T14:42:51.216Z,88.20
2018-11-13T14:45:20.166Z,87.70
2018-11-13T14:47:48.934Z,87.90
2018-11-13T14:50:18.570Z,85.50
2018-11-13T14:52:47.226Z,85.00
2018-11-13T14:55:19.118Z,84.90
2018-11-13T14:57:47.462Z,85.40
2018-11-13T15:00:17.314Z,85.50
2018-11-13T15:02:45.781Z,84.80
2018-11-13T15:05:16.016Z,85.60
2018-11-13T15:07:45.191Z,85.30
2018-11-13T15:10:15.490Z,85.30
2018-11-13T15:12:43.566Z,85.90
2018-11-13T15:15:11.856Z,86.30
2018-11-13T15:17:40.843Z,86.20
2018-11-13T15:20:11.515Z,87.00
2018-11-13T15:22:39.643Z,87.40
2018-11-13T15:25:09.908Z,86.80
2018-11-13T15:27:37.974Z,85.90
2018-11-13T15:30:10.098Z,85.80
2018-11-13T15:32:38.163Z,86.30
2018-11-13T15:35:07.363Z,86.80
2018-11-13T15:37:35.442Z,86.90
2018-11-13T15:40:03.939Z,86.60
2018-11-13T15:42:31.987Z,86.70
2018-11-13T15:45:00.165Z,87.40
2018-11-13T15:47:28.351Z,87.10
2018-11-13T15:49:56.306Z,87.10
2018-11-13T15:52:24.406Z,87.70
2018-11-13T15:54:52.454Z,87.10
2018-11-13T15:57:20.506Z,87.10
2018-11-13T15:59:48.596Z,87.40
2018-11-13T16:02:16.650Z,87.90
2018-11-13T16:04:44.716Z,88.30
2018-11-13T16:07:12.810Z,88.10
2018-11-13T16:09:40.850Z,88.50
2018-11-13T16:12:08.948Z,88.50
2018-11-13T16:14:37.043Z,88.70
2018-11-13T16:17:05.091Z,89.50
2018-11-13T16:19:33.149Z,89.70
2018-11-13T16:22:01.234Z,90.00
2018-11-13T16:24:29.299Z,90.00
2018-11-13T16:26:57.398Z,90.20
2018-11-13T16:29:25.506Z,90.00
2018-11-13T16:31:53.549Z,90.40
2018-11-13T16:34:21.667Z,90.20
2018-11-13T16:36:49.788Z,90.10
2018-11-13T16:39:17.769Z,90.20
2018-11-13T16:41:45.843Z,90.70
2018-11-13T16:44:14.033Z,90.60
2018-11-13T16:46:42.167Z,90.70
2018-11-13T16:49:10.292Z,90.70
2018-11-13T16:51:38.369Z,90.80
2018-11-13T16:54:07.063Z,90.70
2018-11-13T16:56:40.570Z,90.70
2018-11-13T16:59:08.884Z,90.60
2018-11-13T17:01:37.086Z,90.70
2018-11-13T17:04:05.747Z,90.70
2018-11-13T17:06:33.893Z,90.80
2018-11-13T17:09:01.987Z,91.00
2018-11-13T17:11:30.042Z,91.20
2018-11-13T17:13:58.874Z,91.20
2018-11-13T17:16:26.977Z,91.10
2018-11-13T17:18:54.983Z,91.10
2018-11-13T17:21:23.083Z,90.90
2018-11-13T17:23:51.178Z,90.70
2018-11-13T17:26:19.251Z,90.60
2018-11-13T17:28:47.355Z,90.80
2018-11-13T17:31:15.503Z,90.70
2018-11-13T17:33:43.542Z,90.80
2018-11-13T17:36:11.696Z,90.80
2018-11-13T17:38:39.758Z,91.00
2018-11-13T17:41:07.831Z,91.10
2018-11-13T17:43:35.922Z,91.30
2018-11-13T17:46:04.078Z,91.30
2018-11-13T17:48:32.144Z,91.50
2018-11-13T17:51:00.318Z,91.50
2018-11-13T17:53:28.418Z,91.60
2018-11-13T17:55:56.438Z,91.70
2018-11-13T17:58:24.517Z,91.70
2018-11-13T18:00:52.588Z,91.70
2018-11-13T18:03:20.672Z,91.70
2018-11-13T18:05:49.214Z,91.70
2018-11-13T18:08:17.269Z,91.90
2018-11-13T18:10:46.282Z,92.10
2018-11-13T18:13:14.495Z,92.00
2018-11-13T18:15:42.594Z,92.10
2018-11-13T18:18:10.802Z,92.10
2018-11-13T18:20:39.770Z,92.20
2018-11-13T18:23:08.132Z,92.20
2018-11-13T18:25:36.208Z,92.30
2018-11-13T18:28:04.644Z,92.20
2018-11-13T18:30:33.979Z,92.20
2018-11-13T18:33:02.807Z,92.20
2018-11-13T18:35:33.041Z,92.40
2018-11-13T18:38:02.422Z,92.20
2018-11-13T18:40:30.426Z,92.20
2018-11-13T18:42:59.783Z,92.30
2018-11-13T18:45:30.071Z,92.20
2018-11-13T18:47:58.271Z,92.20
2018-11-13T18:50:27.813Z,92.70
2018-11-13T18:52:56.014Z,92.80
2018-11-13T18:55:24.217Z,92.90
2018-11-13T18:57:52.306Z,93.00
2018-11-13T19:00:21.706Z,93.10
2018-11-13T19:02:49.806Z,93.20
2018-11-13T19:05:18.107Z,93.20
2018-11-13T19:07:46.296Z,93.20
2018-11-13T19:10:21.353Z,93.30
2018-11-13T19:12:49.553Z,93.40
2018-11-13T19:15:17.486Z,93.60
2018-11-13T19:17:45.601Z,93.70
2018-11-13T19:20:15.999Z,93.80
2018-11-13T19:22:44.091Z,93.80
2018-11-13T19:25:14.035Z,94.10
2018-11-13T19:27:42.864Z,94.30
2018-11-13T19:30:12.010Z,94.40
2018-11-13T19:32:40.124Z,94.50
2018-11-13T19:35:08.235Z,94.50
2018-11-13T19:37:36.707Z,94.60
2018-11-13T19:40:06.243Z,94.60
2018-11-13T19:42:34.302Z,94.60
2018-11-13T19:45:02.445Z,94.60
2018-11-13T19:47:30.549Z,94.60
2018-11-13T19:49:58.613Z,94.60
2018-11-13T19:52:26.702Z,94.70
2018-11-13T19:54:54.872Z,94.70
2018-11-13T19:57:23.049Z,94.60
2018-11-13T19:59:51.202Z,94.60
2018-11-13T20:02:19.331Z,94.60
2018-11-13T20:04:47.685Z,94.70
2018-11-13T20:07:15.806Z,94.60
2018-11-13T20:09:43.890Z,94.70
2018-11-13T20:12:11.999Z,94.80
2018-11-13T20:14:40.095Z,94.90
2018-11-13T20:17:08.147Z,95.00
2018-11-13T20:19:36.242Z,95.00
2018-11-13T20:22:04.393Z,95.00
2018-11-13T20:24:32.504Z,95.10
2018-11-13T20:27:00.559Z,95.10
2018-11-13T20:29:28.644Z,95.20
2018-11-13T20:31:56.823Z,95.20
2018-11-13T20:34:24.887Z,95.40
2018-11-13T20:36:52.982Z,95.30
2018-11-13T20:39:21.093Z,95.40
2018-11-13T20:41:49.160Z,95.50
2018-11-13T20:44:17.263Z,95.50
2018-11-13T20:46:45.577Z,95.50
2018-11-13T20:49:16.927Z,95.60
2018-11-13T20:51:45.111Z,95.70
2018-11-13T20:54:13.073Z,95.80
2018-11-13T20:56:41.441Z,95.80
2018-11-13T20:59:09.523Z,96.00
2018-11-13T21:01:37.592Z,96.10
2018-11-13T21:04:05.934Z,96.30
2018-11-13T21:06:33.993Z,96.10
2018-11-13T21:09:02.062Z,96.00
2018-11-13T21:11:30.103Z,96.20
2018-11-13T21:13:58.157Z,96.00
2018-11-13T21:16:26.312Z,96.00
2018-11-13T21:18:54.282Z,96.10
2018-11-13T21:21:22.344Z,95.90
2018-11-13T21:23:50.543Z,95.90
2018-11-13T21:26:18.554Z,95.80
2018-11-13T21:28:46.651Z,96.10
2018-11-13T21:31:14.690Z,95.80
2018-11-13T21:33:42.746Z,95.80
2018-11-13T21:36:10.813Z,95.80
2018-11-13T21:38:38.894Z,95.80
2018-11-13T21:41:06.934Z,95.90
2018-11-13T21:43:35.125Z,95.80
2018-11-13T21:46:03.109Z,95.80
2018-11-13T21:48:31.143Z,95.90
2018-11-13T21:50:59.224Z,96.00
2018-11-13T21:53:27.275Z,96.00
2018-11-13T21:55:55.330Z,96.00
2018-11-13T21:58:23.398Z,96.20
